Emeryville, New York
Current Conditions -  °F | °C
As of 3:55 PM on Friday 31 Oct 2014 (Local Time) from KGTB Reporting Station
Drizzle Drizzle  
Wind Chill: 26°   Ceiling: 5500
Heat Index: 35°   Visibility: 10mi
Dew Point: 34°   Wind: 12mph
Humidity: 98%   Direction: 40°NE
Pressure: 29.96"   Gusts: NA
Location:  44.3309°N, 75.4775°W
Report Text: KGTB 311955Z 04010KT 10SM -DZ FEW014 SCT048 BKN055 07/01 A2996 RMK AO2A DZB1946 SLP155 P0000 T00150012
Loading
Personal Weather Stations






























Interactive Weather Map
Tropical Storm Tracking
New forecast layout! Learn more

10-Day Weather Forecast

Advertisements
Track Severe Weather on mobile